Am 6. und 7. September findet auf unserem Flugplatz ein Hock statt, zu dem wir Sie gerne einladen.

Wir feiern an diesem Tag auch die Aufwertung unseres Flugplatzes zum Sonderlandeplatz mit der Kennung EDSO.

Neben Essen und Trinken, haben Sie die Gelegenheit sich über unseren Sport näher zu informieren.

 

 

 

 

 
NEU! ab. 1.4.
Nortel Info 128,740 MHz

WebCam

  
Kamera Halle
Kamera Vorfeld
Wetter EDDS

METAR

EDDS 211320Z 36005KT 330V040 9999 SCT018 M01/M05 Q1019 NOSIG =
EDDS 211100Z 2112/2212 VRB02KT 9999 FEW030 BECMG 2123/2202 4500 BR PROB40 TEMPO 2202/2207 2500 BR BKN005 BECMG 2207/2209 9000


TAF

EDDS 211100Z 2112/2212 VRB02KT 9999 FEW030 BECMG 2123/2202 4500 BR PROB40 TEMPO 2202/2207 2500 BR BKN005 BECMG 2207/2209 9000 =


SR/SS

07:03 / 16:01 UTC
(EDSO 21-01-2019)